Time;durP1;ratioP1;P1;durP2;ratioP2;P2;SDS_P1;SDS_P2;PMS_P1;PMS_P2;Temp;Humidity;BMP_temperature;BMP_pressure;BME280_temperature;BME280_humidity;BME280_pressure;Samples;Min_cycle;Max_cycle;Signal;HPM_P1;HPM_P2
2023/01/14 00:01:11;;;;;;;;;;;;;;;6.70;100.00;98546.09;4251169;33;20272;-74
2023/01/14 00:03:37;;;;;;;;;;;;;;;6.43;100.00;98552.97;4258159;33;19967;-73
2023/01/14 00:06:03;;;;;;;;;;;;;;;6.52;100.00;98560.41;4258567;33;19942;-74
2023/01/14 00:08:30;;;;;;;;;;;;;;;6.28;100.00;98551.59;4259587;33;19955;-74
2023/01/14 00:11:00;;;;;;;;;;;;;;;6.75;100.00;98556.09;4260327;33;19934;-74
2023/01/14 00:13:26;;;;;;;;;;;;;;;6.28;100.00;98561.50;4259590;33;19946;-74
2023/01/14 00:15:53;;;;;;;;;;;;;;;6.84;100.00;98565.34;4244814;33;20092;-74
2023/01/14 00:18:21;;;;;;;;;;;;;;;6.57;100.00;98564.25;4243205;33;20301;-74
2023/01/14 00:20:56;;;;;;;;;;;;;;;6.65;100.00;98561.22;4242300;33;19979;-74
2023/01/14 00:23:23;;;;;;;;;;;;;;;6.59;100.00;98562.16;4238050;33;19954;-74
2023/01/14 00:25:49;;;;;;;;;;;;;;;6.49;100.00;98542.19;4238174;33;20067;-74
2023/01/14 00:28:15;;;;;;;;;;;;;;;6.41;100.00;98566.59;4238438;33;20420;-74
2023/01/14 00:30:42;;;;;;;;;;;;;;;6.63;100.00;98574.81;4249420;33;19992;-74
2023/01/14 00:33:08;;;;;;;;;;;;;;;6.73;100.00;98576.91;4263803;33;19973;-74
2023/01/14 00:35:41;;;;;;;;;;;;;;;6.17;100.00;98579.16;4258775;33;20865;-74
2023/01/14 00:38:07;;;;;;;;;;;;;;;6.21;100.00;98576.81;4259629;33;19945;-73
2023/01/14 00:40:33;;;;;;;;;;;;;;;6.71;100.00;98587.03;4263517;33;19971;-74
2023/01/14 00:43:00;;;;;;;;;;;;;;;6.66;100.00;98584.25;4263459;33;20034;-73
2023/01/14 00:45:28;;;;;;;;;;;;;;;6.34;100.00;98598.00;4264847;33;20337;-73
2023/01/14 00:47:54;;;;;;;;;;;;;;;6.88;100.00;98587.94;4265835;33;19953;-73
2023/01/14 00:50:21;;;;;;;;;;;;;;;6.35;100.00;98597.75;4262599;33;19948;-73
2023/01/14 00:52:47;;;;;;;;;;;;;;;6.38;100.00;98588.44;4252038;33;19963;-73
2023/01/14 00:55:13;;;;;;;;;;;;;;;6.16;100.00;98586.38;4238889;33;20297;-73
2023/01/14 00:57:39;;;;;;;;;;;;;;;6.51;100.00;98585.56;4240902;33;19950;-73
2023/01/14 03:00:11;;;;;;;;;;;;;;;6.65;100.00;98652.19;5078154;27;19963;31
2023/01/14 03:02:50;;;;;;;;;;;;;;;6.16;100.00;98645.19;4286518;33;20002;-74
2023/01/14 03:05:19;;;;;;;;;;;;;;;6.52;100.00;98640.66;4290303;33;19959;-73
2023/01/14 03:08:12;;;;;;;;;;;;;;;6.33;100.00;98641.81;4285264;33;19945;-73
2023/01/14 03:10:53;;;;;;;;;;;;;;;6.44;100.00;98658.94;4287687;33;19953;-73
2023/01/14 03:13:22;;;;;;;;;;;;;;;6.61;100.00;98657.19;4288752;33;20354;-73
2023/01/14 03:15:55;;;;;;;;;;;;;;;6.07;100.00;98646.56;4283412;33;19967;-74
2023/01/14 03:18:31;;;;;;;;;;;;;;;6.34;100.00;98656.81;4287866;33;20350;-73
2023/01/14 03:21:04;;;;;;;;;;;;;;;6.72;100.00;98660.91;4297220;33;19953;-75
2023/01/14 03:23:39;;;;;;;;;;;;;;;6.53;100.00;98663.69;4297239;33;20232;-73
2023/01/14 03:26:11;;;;;;;;;;;;;;;6.40;100.00;98671.12;4289873;33;19969;-73
2023/01/14 03:28:40;;;;;;;;;;;;;;;6.18;100.00;98664.47;4285877;33;19981;-73
2023/01/14 03:31:13;;;;;;;;;;;;;;;6.26;100.00;98670.53;4266691;33;19977;-73
2023/01/14 03:33:43;;;;;;;;;;;;;;;6.24;100.00;98664.59;4266995;33;19953;-73
2023/01/14 03:36:13;;;;;;;;;;;;;;;6.36;100.00;98670.78;4264853;33;19957;-71
2023/01/14 03:38:48;;;;;;;;;;;;;;;6.32;100.00;98685.66;4267155;33;20683;-72
2023/01/14 03:44:10;;;;;;;;;;;;;;;6.47;100.00;98678.00;4237891;33;20264;-73
2023/01/14 03:46:36;;;;;;;;;;;;;;;6.53;100.00;98677.06;4253950;33;19938;-74
2023/01/14 03:49:02;;;;;;;;;;;;;;;6.40;100.00;98674.63;4251100;33;19972;-73
2023/01/14 03:51:34;;;;;;;;;;;;;;;6.39;100.00;98686.34;4250471;33;19989;-73
2023/01/14 03:57:02;;;;;;;;;;;;;;;6.35;100.00;98687.84;4261864;33;20328;-74
2023/01/14 03:59:54;;;;;;;;;;;;;;;6.48;100.00;98695.69;4243675;33;20025;-73
2023/01/14 04:02:26;;;;;;;;;;;;;;;6.25;100.00;98690.28;4248860;33;20317;-73
2023/01/14 04:04:54;;;;;;;;;;;;;;;6.29;100.00;98694.94;4250510;33;19938;-74
2023/01/14 04:07:20;;;;;;;;;;;;;;;6.21;100.00;98700.63;4250362;33;19957;-73
2023/01/14 04:09:47;;;;;;;;;;;;;;;6.39;100.00;98694.38;4251799;33;19944;-74
2023/01/14 04:12:13;;;;;;;;;;;;;;;6.42;100.00;98704.63;4251857;33;19942;-75
2023/01/14 04:17:24;;;;;;;;;;;;;;;6.46;100.00;98697.78;4249535;33;20280;-74
2023/01/14 04:19:50;;;;;;;;;;;;;;;6.46;100.00;98703.13;4223846;34;19973;-73
2023/01/14 04:22:16;;;;;;;;;;;;;;;6.47;100.00;98703.94;4238441;33;19973;-74
2023/01/14 04:24:43;;;;;;;;;;;;;;;6.32;100.00;98707.06;4252349;33;19980;-73
2023/01/14 04:27:09;;;;;;;;;;;;;;;6.21;100.00;98703.31;4238810;33;20037;-72
2023/01/14 04:29:35;;;;;;;;;;;;;;;6.24;100.00;98704.69;4248659;33;19950;-73
2023/01/14 04:32:01;;;;;;;;;;;;;;;6.35;100.00;98699.38;4266387;33;20927;-74
2023/01/14 04:34:27;;;;;;;;;;;;;;;6.21;100.00;98707.81;4265916;33;19984;-74
2023/01/14 04:36:53;;;;;;;;;;;;;;;6.22;100.00;98706.78;4236885;33;19942;-74
2023/01/14 04:39:20;;;;;;;;;;;;;;;6.57;100.00;98708.72;4223741;33;19943;-73
2023/01/14 04:44:31;;;;;;;;;;;;;;;6.25;100.00;98717.03;4266038;33;19960;-74
2023/01/14 04:46:57;;;;;;;;;;;;;;;6.37;100.00;98725.91;4259854;33;20021;-73
2023/01/14 04:49:23;;;;;;;;;;;;;;;6.04;100.00;98724.53;4253698;33;19951;-73
2023/01/14 04:51:50;;;;;;;;;;;;;;;6.09;100.00;98740.69;4241457;33;19996;-74
2023/01/14 04:54:16;;;;;;;;;;;;;;;6.00;100.00;98731.38;4237918;33;19946;-74
2023/01/14 04:56:42;;;;;;;;;;;;;;;6.31;100.00;98729.47;4238001;33;19948;-73
2023/01/14 04:59:08;;;;;;;;;;;;;;;6.29;100.00;98734.25;4251458;33;20007;-74
2023/01/14 05:01:34;;;;;;;;;;;;;;;6.38;100.00;98743.56;4242805;33;19950;-74
2023/01/14 05:04:01;;;;;;;;;;;;;;;6.10;100.00;98742.31;4246067;33;20404;-74
2023/01/14 05:06:28;;;;;;;;;;;;;;;6.02;100.00;98745.31;4239023;33;19950;-74
2023/01/14 05:08:55;;;;;;;;;;;;;;;6.04;100.00;98753.91;4226687;33;19942;-74
2023/01/14 05:11:21;;;;;;;;;;;;;;;6.41;100.00;98748.44;4223302;34;19939;-74
2023/01/14 05:13:47;;;;;;;;;;;;;;;5.74;100.00;98752.00;4221123;33;19956;-73
2023/01/14 05:16:16;;;;;;;;;;;;;;;6.10;100.00;98747.66;4225475;34;19959;-74
2023/01/14 05:18:42;;;;;;;;;;;;;;;6.21;100.00;98742.56;4226364;34;20063;-74
2023/01/14 05:21:09;;;;;;;;;;;;;;;5.98;100.00;98757.50;4225805;34;19962;-75
2023/01/14 05:23:35;;;;;;;;;;;;;;;5.89;100.00;98756.97;4237586;33;19960;-73
2023/01/14 05:26:01;;;;;;;;;;;;;;;6.18;100.00;98755.38;4237982;33;19950;-72
2023/01/14 05:28:27;;;;;;;;;;;;;;;6.09;100.00;98762.06;4240948;33;19954;-74
2023/01/14 05:30:53;;;;;;;;;;;;;;;6.04;100.00;98759.25;4240220;33;20370;-74
2023/01/14 05:33:20;;;;;;;;;;;;;;;6.14;100.00;98762.22;4253267;33;20238;-74
2023/01/14 05:35:46;;;;;;;;;;;;;;;6.02;100.00;98772.03;4254809;33;20017;-73
2023/01/14 05:38:12;;;;;;;;;;;;;;;6.17;100.00;98768.94;4261961;33;19988;-73
2023/01/14 05:40:38;;;;;;;;;;;;;;;6.10;100.00;98785.09;4255405;33;19988;-73
2023/01/14 05:45:49;;;;;;;;;;;;;;;6.36;100.00;98778.53;4256310;33;20329;-74
2023/01/14 05:48:17;;;;;;;;;;;;;;;5.98;100.00;98787.72;4264601;33;19954;-73
2023/01/14 05:50:43;;;;;;;;;;;;;;;5.98;100.00;98786.88;4269898;33;19971;-74
2023/01/14 05:53:09;;;;;;;;;;;;;;;6.09;100.00;98799.50;4269799;33;19959;-74
2023/01/14 05:55:36;;;;;;;;;;;;;;;6.31;100.00;98794.47;4270283;33;19945;-74
2023/01/14 05:58:04;;;;;;;;;;;;;;;6.05;100.00;98798.31;4270351;33;19959;-74
2023/01/14 06:08:51;;;;;;;;;;;;;;;5.60;100.00;98811.97;4296041;33;19959;-74
2023/01/14 06:11:20;;;;;;;;;;;;;;;5.65;100.00;98809.47;4284333;33;19945;-73
2023/01/14 06:13:47;;;;;;;;;;;;;;;5.67;100.00;98811.91;4281380;33;19953;-73
2023/01/14 06:16:14;;;;;;;;;;;;;;;5.57;100.00;98812.44;4284256;33;20865;-73
2023/01/14 06:18:43;;;;;;;;;;;;;;;5.71;100.00;98816.59;4292212;33;19956;-74
2023/01/14 06:21:29;;;;;;;;;;;;;;;5.75;100.00;98824.97;4297943;33;19963;-74
2023/01/14 06:23:56;;;;;;;;;;;;;;;5.51;100.00;98834.69;4298517;33;20017;-74
2023/01/14 06:26:31;;;;;;;;;;;;;;;5.99;100.00;98825.94;4294616;33;19957;-73
2023/01/14 06:29:01;;;;;;;;;;;;;;;5.83;100.00;98817.47;4293421;33;19962;-73
2023/01/14 06:31:28;;;;;;;;;;;;;;;5.66;100.00;98843.13;4267119;33;19975;-72
2023/01/14 06:33:55;;;;;;;;;;;;;;;5.74;100.00;98834.03;4250931;33;20041;-72
2023/01/14 06:36:22;;;;;;;;;;;;;;;5.70;100.00;98839.00;4252292;33;19954;-73
2023/01/14 06:38:48;;;;;;;;;;;;;;;5.55;100.00;98830.53;4238312;33;19990;-73
2023/01/14 06:41:15;;;;;;;;;;;;;;;5.80;100.00;98825.91;4244766;33;19956;-73
2023/01/14 06:43:42;;;;;;;;;;;;;;;5.66;100.00;98837.78;4251577;33;19950;-73
2023/01/14 06:46:09;;;;;;;;;;;;;;;5.75;100.00;98841.00;4253485;33;19997;-73
2023/01/14 06:48:35;;;;;;;;;;;;;;;5.81;100.00;98838.25;4252525;33;19946;-74
2023/01/14 06:51:05;;;;;;;;;;;;;;;5.74;100.00;98840.16;4249048;33;19938;-72
2023/01/14 06:53:32;;;;;;;;;;;;;;;5.93;100.00;98842.84;4245559;33;19964;-73
2023/01/14 06:56:02;;;;;;;;;;;;;;;5.71;100.00;98835.31;4244552;33;19979;-72
2023/01/14 06:58:28;;;;;;;;;;;;;;;5.98;100.00;98846.53;4250858;33;20013;-73
2023/01/14 07:00:57;;;;;;;;;;;;;;;6.06;100.00;98848.06;4238694;33;19961;-73
2023/01/14 07:03:23;;;;;;;;;;;;;;;5.79;100.00;98853.69;4239338;33;19948;-72
2023/01/14 07:05:49;;;;;;;;;;;;;;;5.96;100.00;98858.44;4234704;33;19994;-75
2023/01/14 07:08:16;;;;;;;;;;;;;;;5.90;100.00;98859.31;4251158;33;20907;-74
2023/01/14 07:10:50;;;;;;;;;;;;;;;6.08;100.00;98846.00;4253394;33;19981;-75
2023/01/14 07:13:17;;;;;;;;;;;;;;;5.63;100.00;98856.94;4253306;33;19945;-74
2023/01/14 07:15:43;;;;;;;;;;;;;;;5.88;100.00;98861.41;4253822;33;20015;-73
2023/01/14 07:18:10;;;;;;;;;;;;;;;5.52;100.00;98793.56;4252447;33;19960;-73
2023/01/14 07:20:37;;;;;;;;;;;;;;;6.10;100.00;98854.59;4252329;33;20012;-73
2023/01/14 07:23:03;;;;;;;;;;;;;;;5.73;100.00;98859.94;4252655;33;19938;-73
2023/01/14 07:25:30;;;;;;;;;;;;;;;5.79;100.00;98861.72;4252244;33;19945;-73
2023/01/14 07:27:56;;;;;;;;;;;;;;;5.88;100.00;98866.75;4252560;33;19946;-73
2023/01/14 07:30:22;;;;;;;;;;;;;;;5.97;100.00;98865.47;4223325;34;19939;-74
2023/01/14 07:32:48;;;;;;;;;;;;;;;6.33;100.00;98863.75;4223369;34;19974;-74
2023/01/14 07:35:14;;;;;;;;;;;;;;;6.11;100.00;98866.09;4224298;34;20084;-74
2023/01/14 07:37:41;;;;;;;;;;;;;;;5.81;100.00;98867.66;4246872;33;19981;-74
2023/01/14 07:40:07;;;;;;;;;;;;;;;6.28;100.00;98866.31;4251622;33;19950;-74
2023/01/14 07:42:33;;;;;;;;;;;;;;;6.22;100.00;98864.53;4252075;33;20280;-74
2023/01/14 07:45:00;;;;;;;;;;;;;;;6.08;100.00;98882.56;4252619;33;19948;-75
2023/01/14 07:47:26;;;;;;;;;;;;;;;6.21;100.00;98874.41;4252887;33;19967;-75
2023/01/14 07:49:52;;;;;;;;;;;;;;;6.41;100.00;98876.00;4263300;33;19942;-73
2023/01/14 07:52:18;;;;;;;;;;;;;;;6.16;100.00;98872.41;4264422;33;19984;-72
2023/01/14 07:54:45;;;;;;;;;;;;;;;6.04;100.00;98895.59;4252599;33;19967;-73
2023/01/14 07:57:12;;;;;;;;;;;;;;;6.00;100.00;98897.09;4252616;33;19942;-73
2023/01/14 07:59:38;;;;;;;;;;;;;;;6.04;100.00;98895.59;4252192;33;20366;-73
2023/01/14 08:02:06;;;;;;;;;;;;;;;6.08;100.00;98909.31;4259865;33;19967;-73
2023/01/14 08:04:32;;;;;;;;;;;;;;;5.99;100.00;98908.81;4263308;33;19955;-73
2023/01/14 08:06:58;;;;;;;;;;;;;;;6.30;100.00;98912.34;4264268;33;20000;-73
2023/01/14 08:09:25;;;;;;;;;;;;;;;6.27;100.00;98899.41;4263898;33;19969;-73
2023/01/14 08:11:52;;;;;;;;;;;;;;;6.06;100.00;98901.50;4244404;33;19952;-74
2023/01/14 08:14:19;;;;;;;;;;;;;;;6.31;100.00;98897.94;4251782;33;19947;-74
2023/01/14 08:16:45;;;;;;;;;;;;;;;6.10;100.00;98908.06;4248729;33;19953;-74
2023/01/14 08:19:12;;;;;;;;;;;;;;;5.97;100.00;98900.19;4249916;33;19950;-74
2023/01/14 08:21:38;;;;;;;;;;;;;;;6.06;100.00;98898.84;4251503;33;19989;-75
2023/01/14 08:24:05;;;;;;;;;;;;;;;5.85;100.00;98909.97;4251832;33;19972;-74
2023/01/14 08:26:31;;;;;;;;;;;;;;;5.80;100.00;98908.75;4261061;33;19953;-75
2023/01/14 08:28:57;;;;;;;;;;;;;;;5.86;100.00;98922.28;4276524;33;19945;-74
2023/01/14 08:31:23;;;;;;;;;;;;;;;6.43;100.00;98936.28;4272897;33;20004;-74
2023/01/14 08:33:50;;;;;;;;;;;;;;;6.34;100.00;98918.87;4273344;33;20328;-75
2023/01/14 08:36:17;;;;;;;;;;;;;;;6.17;100.00;98924.84;4262518;33;20367;-74
2023/01/14 08:38:46;;;;;;;;;;;;;;;6.27;100.00;98924.31;4265727;33;19956;-74
2023/01/14 08:41:13;;;;;;;;;;;;;;;6.34;100.00;98924.25;4264473;33;19982;-75
2023/01/14 08:43:40;;;;;;;;;;;;;;;6.84;100.00;98918.63;4267049;33;20341;-74
2023/01/14 08:46:12;;;;;;;;;;;;;;;6.35;100.00;98925.84;4269312;33;20336;-74
2023/01/14 08:48:39;;;;;;;;;;;;;;;6.41;100.00;98935.66;4267720;33;19945;-74
2023/01/14 08:51:06;;;;;;;;;;;;;;;6.65;100.00;98930.41;4266548;33;19957;-73
2023/01/14 08:53:35;;;;;;;;;;;;;;;6.59;100.00;98936.66;4269022;33;19961;-73
2023/01/14 08:56:03;;;;;;;;;;;;;;;6.32;100.00;98932.47;4265431;33;19951;-75
2023/01/14 08:58:29;;;;;;;;;;;;;;;6.36;100.00;98938.19;4252529;33;20004;-74
2023/01/14 09:00:56;;;;;;;;;;;;;;;6.14;100.00;98941.34;4276709;33;19965;-75
2023/01/14 09:03:25;;;;;;;;;;;;;;;6.40;100.00;98942.06;4273501;33;19950;-74
2023/01/14 09:05:56;;;;;;;;;;;;;;;6.57;100.00;98965.50;4265419;33;19957;-76
2023/01/14 09:19:26;;;;;;;;;;;;;;;6.53;100.00;98963.28;4276273;33;19975;-75
2023/01/14 09:21:52;;;;;;;;;;;;;;;6.57;100.00;98960.16;4283479;33;20053;-74
2023/01/14 09:24:18;;;;;;;;;;;;;;;6.46;100.00;98970.59;4259546;33;19999;-74
2023/01/14 09:26:45;;;;;;;;;;;;;;;6.71;100.00;98961.62;4256465;33;19942;-75
2023/01/14 09:29:11;;;;;;;;;;;;;;;6.69;100.00;98958.38;4257124;33;19957;-74
2023/01/14 09:31:37;;;;;;;;;;;;;;;6.82;100.00;98958.19;4254214;33;19954;-75
2023/01/14 09:34:04;;;;;;;;;;;;;;;6.67;100.00;98960.44;4252499;33;19946;-74
2023/01/14 09:36:30;;;;;;;;;;;;;;;6.95;100.00;98941.13;4249885;33;19942;-74
2023/01/14 09:38:56;;;;;;;;;;;;;;;6.80;100.00;98959.47;4238160;33;19938;-76
2023/01/14 09:41:24;;;;;;;;;;;;;;;6.72;100.00;98953.38;4249586;33;20085;-76
2023/01/14 09:43:51;;;;;;;;;;;;;;;6.79;100.00;98949.81;4234390;33;19946;-75
2023/01/14 09:46:20;;;;;;;;;;;;;;;6.90;100.00;98955.19;4234389;33;19956;-76
2023/01/14 09:48:47;;;;;;;;;;;;;;;6.73;100.00;98949.66;4237738;33;20370;-75
2023/01/14 09:51:32;;;;;;;;;;;;;;;6.99;100.00;98946.81;4236531;33;20066;-75
2023/01/14 09:54:14;;;;;;;;;;;;;;;6.76;100.00;98959.09;4224569;33;20002;-76
2023/01/14 09:56:42;;;;;;;;;;;;;;;6.96;100.00;98968.72;4237903;33;20010;-75
2023/01/14 09:59:17;;;;;;;;;;;;;;;6.70;100.00;98954.63;4238388;33;19965;-76
2023/01/14 10:01:52;;;;;;;;;;;;;;;6.83;100.00;98949.13;4243046;33;19958;-75
2023/01/14 10:05:04;;;;;;;;;;;;;;;6.83;100.00;98942.94;4251252;33;19962;-75
2023/01/14 10:07:31;;;;;;;;;;;;;;;6.64;100.00;98960.91;4220838;33;20367;-75
2023/01/14 10:09:58;;;;;;;;;;;;;;;6.82;100.00;98962.72;4223789;33;19939;-75
2023/01/14 10:12:35;;;;;;;;;;;;;;;6.67;100.00;98949.72;4228889;33;19951;-75
2023/01/14 10:15:13;;;;;;;;;;;;;;;6.97;100.00;98948.91;4239926;33;19958;-75
2023/01/14 10:17:42;;;;;;;;;;;;;;;7.00;100.00;98943.13;4248695;33;20095;-77
2023/01/14 10:20:29;;;;;;;;;;;;;;;6.94;100.00;98938.66;4249547;33;19961;-76
2023/01/14 10:23:00;;;;;;;;;;;;;;;6.87;100.00;98958.31;4252173;33;19946;-74
2023/01/14 10:25:28;;;;;;;;;;;;;;;7.19;100.00;98946.53;4251598;33;19967;-74
2023/01/14 10:27:55;;;;;;;;;;;;;;;6.80;100.00;98946.91;4249901;33;19961;-75
2023/01/14 10:30:24;;;;;;;;;;;;;;;6.79;100.00;98942.56;4244869;33;19956;-74
2023/01/14 10:32:51;;;;;;;;;;;;;;;6.81;100.00;98951.22;4244328;33;19969;-74
2023/01/14 10:35:23;;;;;;;;;;;;;;;6.76;100.00;98950.25;4243103;33;20348;-75
2023/01/14 10:37:49;;;;;;;;;;;;;;;7.21;100.00;98939.09;4227977;33;19960;-74
2023/01/14 10:40:21;;;;;;;;;;;;;;;7.12;100.00;98949.31;4239131;33;19946;-74
2023/01/14 10:42:47;;;;;;;;;;;;;;;6.91;100.00;98940.75;4261922;33;19951;-76
2023/01/14 10:45:13;;;;;;;;;;;;;;;7.11;100.00;98934.28;4265717;33;19991;-75
2023/01/14 10:47:46;;;;;;;;;;;;;;;6.91;100.00;98943.44;4267094;33;19951;-76
2023/01/14 10:50:18;;;;;;;;;;;;;;;7.02;100.00;98931.16;4266887;33;19949;-75
2023/01/14 10:52:44;;;;;;;;;;;;;;;6.81;100.00;98945.88;4266307;33;19951;-74
2023/01/14 10:55:10;;;;;;;;;;;;;;;6.91;100.00;98945.31;4264220;33;19953;-74
2023/01/14 10:57:39;;;;;;;;;;;;;;;6.87;100.00;98950.28;4266468;33;20012;-74
2023/01/14 11:00:08;;;;;;;;;;;;;;;7.05;100.00;98935.22;4265340;33;19956;-76
2023/01/14 11:05:47;;;;;;;;;;;;;;;7.05;100.00;98929.84;4253828;33;20019;-75
2023/01/14 11:08:13;;;;;;;;;;;;;;;7.75;100.00;98926.44;4208484;34;19958;-73
2023/01/14 11:10:41;;;;;;;;;;;;;;;7.16;100.00;98931.75;4219325;33;19947;-74
2023/01/14 11:13:36;;;;;;;;;;;;;;;7.09;100.00;98941.75;4221722;33;19965;-74
2023/01/14 11:16:03;;;;;;;;;;;;;;;7.32;100.00;98932.13;4221606;33;19950;-75
2023/01/14 11:18:30;;;;;;;;;;;;;;;7.71;100.00;98937.88;4217748;33;20040;-73
2023/01/14 11:20:59;;;;;;;;;;;;;;;7.80;100.00;98928.41;4223110;33;19976;-76
2023/01/14 11:23:28;;;;;;;;;;;;;;;7.72;100.00;98926.09;4223679;33;20013;-75
2023/01/14 11:25:56;;;;;;;;;;;;;;;7.63;100.00;98925.63;4221997;33;19942;-74
2023/01/14 11:28:22;;;;;;;;;;;;;;;7.44;100.00;98932.97;4219818;33;19955;-74
2023/01/14 11:30:52;;;;;;;;;;;;;;;7.13;100.00;98924.16;4220866;33;19960;-75
2023/01/14 11:33:19;;;;;;;;;;;;;;;7.40;100.00;98915.72;4215479;33;19996;-75
2023/01/14 11:35:54;;;;;;;;;;;;;;;7.48;100.00;98917.25;4219273;33;19950;-75
2023/01/14 11:38:23;;;;;;;;;;;;;;;7.46;100.00;98907.56;4220607;33;19971;-75
2023/01/14 11:43:56;;;;;;;;;;;;;;;7.85;100.00;98912.47;4267576;33;19968;-75
2023/01/14 11:46:22;;;;;;;;;;;;;;;7.64;100.00;98905.81;4264642;33;19971;-75
2023/01/14 11:48:57;;;;;;;;;;;;;;;7.87;100.00;98893.47;4276853;33;20007;-75
2023/01/14 11:51:25;;;;;;;;;;;;;;;7.96;100.00;98895.56;4263475;33;20284;-76
2023/01/14 11:53:52;;;;;;;;;;;;;;;7.68;100.00;98880.19;4262396;33;19946;-75
2023/01/14 11:56:28;;;;;;;;;;;;;;;7.89;100.00;98881.44;4257812;33;19946;-75
2023/01/14 11:58:55;;;;;;;;;;;;;;;8.05;100.00;98876.41;4256264;33;19957;-75
2023/01/14 12:01:26;;;;;;;;;;;;;;;7.95;100.00;98877.81;4443703;27;20047;-75
2023/01/14 12:03:57;;;;;;;;;;;;;;;8.06;100.00;98880.69;4300677;33;19937;-76
2023/01/14 12:06:27;;;;;;;;;;;;;;;8.11;100.00;98886.19;4299758;33;19958;-74
2023/01/14 12:08:55;;;;;;;;;;;;;;;8.28;100.00;98873.66;4295784;33;19969;-73
2023/01/14 12:11:42;;;;;;;;;;;;;;;8.25;100.00;98876.81;4295850;33;20041;-75
2023/01/14 12:17:01;;;;;;;;;;;;;;;7.85;100.00;98869.56;4290436;33;20018;-77
2023/01/14 12:19:37;;;;;;;;;;;;;;;8.26;100.00;98854.28;4261131;33;20725;-74
2023/01/14 12:22:15;;;;;;;;;;;;;;;8.25;100.00;98858.06;4254073;33;19968;-73
2023/01/14 12:24:47;;;;;;;;;;;;;;;8.64;100.00;98855.56;4254951;33;20350;-73
2023/01/14 12:27:41;;;;;;;;;;;;;;;8.72;100.00;98857.84;4254311;33;19946;-73
2023/01/14 12:30:27;;;;;;;;;;;;;;;7.91;100.00;98863.25;4250937;33;19949;-73
2023/01/14 12:33:08;;;;;;;;;;;;;;;8.02;100.00;98852.75;4215085;33;20332;-73
2023/01/14 12:35:47;;;;;;;;;;;;;;;8.29;100.00;98853.81;4213562;34;19954;-71
2023/01/14 12:47:03;;;;;;;;;;;;;;;7.92;100.00;98854.16;4236993;33;19955;-73
2023/01/14 12:49:33;;;;;;;;;;;;;;;8.40;100.00;98840.63;4237889;33;19981;-72
2023/01/14 12:52:01;;;;;;;;;;;;;;;7.85;100.00;98850.81;4251859;33;19946;-72
2023/01/14 12:54:31;;;;;;;;;;;;;;;8.19;100.00;98848.28;4274878;33;19966;-73
2023/01/14 12:56:58;;;;;;;;;;;;;;;8.44;100.00;98841.78;4252391;33;19958;-72
2023/01/14 12:59:29;;;;;;;;;;;;;;;8.23;100.00;98844.03;4250688;33;19961;-72
2023/01/14 13:01:59;;;;;;;;;;;;;;;8.29;100.00;98845.78;4258770;33;19968;-72
2023/01/14 13:04:30;;;;;;;;;;;;;;;8.43;100.00;98837.44;4267946;33;19964;-72
2023/01/14 13:06:59;;;;;;;;;;;;;;;8.69;100.00;98844.91;4266584;33;19949;-71
2023/01/14 13:09:42;;;;;;;;;;;;;;;8.54;100.00;98844.66;4260781;33;20455;-72
2023/01/14 13:12:17;;;;;;;;;;;;;;;8.32;100.00;98841.81;4256079;33;20005;-73
2023/01/14 13:14:51;;;;;;;;;;;;;;;8.25;100.00;98836.59;4252960;33;20336;-72
2023/01/14 13:17:20;;;;;;;;;;;;;;;8.54;100.00;98834.72;4255220;33;19950;-72
2023/01/14 13:19:48;;;;;;;;;;;;;;;8.39;100.00;98839.78;4272704;33;19953;-73
2023/01/14 13:22:40;;;;;;;;;;;;;;;8.30;100.00;98843.91;4276869;33;20409;-73
2023/01/14 13:25:08;;;;;;;;;;;;;;;8.19;100.00;98838.34;4278307;33;19946;-73
2023/01/14 13:27:41;;;;;;;;;;;;;;;8.01;100.00;98851.94;4277890;33;19989;-73
2023/01/14 13:30:17;;;;;;;;;;;;;;;8.32;100.00;98869.44;4278040;33;19945;-72
2023/01/14 13:32:49;;;;;;;;;;;;;;;8.10;100.00;98839.78;4279352;33;19967;-72
2023/01/14 13:35:18;;;;;;;;;;;;;;;7.74;100.00;98832.88;4279921;33;19955;-72
2023/01/14 13:37:44;;;;;;;;;;;;;;;7.83;100.00;98839.50;4280043;33;20332;-73
2023/01/14 13:40:31;;;;;;;;;;;;;;;7.88;100.00;98838.78;4251518;33;19996;-73
2023/01/14 13:43:00;;;;;;;;;;;;;;;7.91;100.00;98841.81;4252824;33;19992;-72
2023/01/14 13:45:28;;;;;;;;;;;;;;;7.99;100.00;98838.78;4251624;33;19965;-72
2023/01/14 13:47:55;;;;;;;;;;;;;;;7.90;100.00;98834.81;4253099;33;19960;-72
2023/01/14 13:50:22;;;;;;;;;;;;;;;8.14;100.00;98834.75;4234217;33;19946;-72
2023/01/14 13:52:50;;;;;;;;;;;;;;;8.04;100.00;98831.88;4235813;33;20526;-73
2023/01/14 13:55:24;;;;;;;;;;;;;;;7.72;100.00;98833.13;4238598;33;21002;-73
2023/01/14 13:57:53;;;;;;;;;;;;;;;7.88;100.00;98838.78;4237909;33;19973;-73
2023/01/14 14:00:19;;;;;;;;;;;;;;;7.76;100.00;98825.41;4238033;33;20326;-73
2023/01/14 14:02:56;;;;;;;;;;;;;;;8.10;100.00;98818.31;4238310;33;20053;-72
2023/01/14 14:05:24;;;;;;;;;;;;;;;8.16;100.00;98821.94;4237646;33;20022;-73
2023/01/14 14:08:03;;;;;;;;;;;;;;;8.13;100.00;98819.72;4237093;33;19981;-72
2023/01/14 14:10:34;;;;;;;;;;;;;;;7.89;100.00;98827.81;4236656;33;20364;-72
2023/01/14 14:16:22;;;;;;;;;;;;;;;8.26;100.00;98824.78;4238723;33;19972;-72
2023/01/14 14:18:51;;;;;;;;;;;;;;;7.90;100.00;98816.06;4244394;33;19989;-73
2023/01/14 14:21:20;;;;;;;;;;;;;;;8.08;100.00;98808.91;4250437;33;20077;-72
2023/01/14 14:23:48;;;;;;;;;;;;;;;8.12;100.00;98815.41;4267001;33;20256;-72
2023/01/14 14:26:17;;;;;;;;;;;;;;;7.92;100.00;98803.22;4266978;33;19941;-72
2023/01/14 14:28:45;;;;;;;;;;;;;;;7.82;100.00;98800.34;4267322;33;20413;-72
2023/01/14 14:31:14;;;;;;;;;;;;;;;8.19;100.00;98806.16;4261628;33;20291;-72
2023/01/14 14:33:42;;;;;;;;;;;;;;;7.93;100.00;98802.19;4267228;33;20498;-73
2023/01/14 14:36:19;;;;;;;;;;;;;;;7.94;100.00;98811.84;4265908;33;19962;-72
2023/01/14 14:38:48;;;;;;;;;;;;;;;7.80;100.00;98799.75;4266396;33;19975;-72
2023/01/14 14:41:16;;;;;;;;;;;;;;;7.37;100.00;98768.84;4261979;33;19975;-72
2023/01/14 14:43:43;;;;;;;;;;;;;;;7.81;100.00;98798.72;4264118;33;19991;-72
2023/01/14 14:46:10;;;;;;;;;;;;;;;7.47;100.00;98803.91;4261977;33;20427;-72
2023/01/14 14:48:40;;;;;;;;;;;;;;;7.26;100.00;98792.75;4266184;33;20000;-72
2023/01/14 14:51:13;;;;;;;;;;;;;;;7.30;100.00;98789.59;4259430;33;19961;-73
2023/01/14 14:53:44;;;;;;;;;;;;;;;7.25;100.00;98804.50;4266365;33;19957;-72
2023/01/14 14:56:15;;;;;;;;;;;;;;;7.17;100.00;98788.78;4265606;33;20079;-72
2023/01/14 14:58:45;;;;;;;;;;;;;;;7.35;100.00;98792.38;4264826;33;19993;-72
2023/01/14 15:01:11;;;;;;;;;;;;;;;7.17;100.00;98788.78;4265146;33;19957;-72
2023/01/14 15:03:39;;;;;;;;;;;;;;;7.14;100.00;98789.25;4266312;33;19993;-73
2023/01/14 15:06:10;;;;;;;;;;;;;;;7.17;100.00;98794.13;4265541;33;19975;-72
2023/01/14 15:08:39;;;;;;;;;;;;;;;7.27;100.00;98791.72;4264633;33;19949;-73
2023/01/14 15:11:09;;;;;;;;;;;;;;;7.09;100.00;98781.91;4263923;33;20369;-72
2023/01/14 15:13:42;;;;;;;;;;;;;;;6.94;100.00;98784.25;4264290;33;19985;-72
2023/01/14 15:16:08;;;;;;;;;;;;;;;7.13;100.00;98782.25;4257368;33;19958;-72
2023/01/14 15:18:34;;;;;;;;;;;;;;;6.96;100.00;98781.34;4266741;33;20383;-72
2023/01/14 15:21:02;;;;;;;;;;;;;;;6.98;100.00;98784.59;4265167;33;20388;-71
2023/01/14 15:23:29;;;;;;;;;;;;;;;6.88;100.00;98785.19;4268934;33;20023;-73
2023/01/14 15:26:02;;;;;;;;;;;;;;;7.00;100.00;98780.63;4267703;33;19954;-72
2023/01/14 15:28:29;;;;;;;;;;;;;;;6.90;100.00;98783.88;4265463;33;19957;-73
2023/01/14 15:30:56;;;;;;;;;;;;;;;6.88;100.00;98775.28;4265760;33;20502;-72
2023/01/14 15:33:26;;;;;;;;;;;;;;;6.75;100.00;98775.50;4267857;33;19961;-72
2023/01/14 15:36:00;;;;;;;;;;;;;;;6.80;100.00;98770.28;4268490;33;19959;-72
2023/01/14 15:38:35;;;;;;;;;;;;;;;6.57;100.00;98767.56;4265003;33;19963;-72
2023/01/14 15:41:09;;;;;;;;;;;;;;;6.47;100.00;98768.94;4265218;33;20000;-72
2023/01/14 15:43:38;;;;;;;;;;;;;;;6.49;100.00;98761.50;4267849;33;19967;-73
2023/01/14 15:46:17;;;;;;;;;;;;;;;6.38;100.00;98764.94;4268417;33;19949;-74
2023/01/14 15:48:48;;;;;;;;;;;;;;;6.51;100.00;98747.88;4267645;33;19969;-72
2023/01/14 15:51:22;;;;;;;;;;;;;;;6.39;100.00;98747.88;4267893;33;19960;-72
2023/01/14 15:53:48;;;;;;;;;;;;;;;6.25;100.00;98754.47;4268787;33;20290;-72